Kurunegala, Sri Lanka

5:39 PM IST on August 24, 2016 (GMT +0530)
TROPIFLORA SRI LANKA LENA | | Change Station

Elev 512 ft 7.56 °N, 80.51 °E | Updated 1 minute ago

Mostly Cloudy
Mostly Cloudy
85.4 °F
Feels Like 92 °F
N
1.0
Wind Variable Wind from SW
Gusts 12.0 mph

Today
High -- | Low -- °F
--% Chance of Precip.
Yesterday
High -- | Low -- °F
Precip. -- in
Pressure 29.74 in
Visibility 6.2 miles
Clouds Few 1400 ft
Mostly Cloudy 1600 ft
Heat Index 92 °F
Dew Point 73 °F
Humidity 67%
Rainfall 0.00 in
Snow Depth Not available.
6:01 AM 6:19 PM
Waning Gibbous, 57% visible
METAR VCBI 241110Z 25009KT 9999 FEW014 BKN016 28/23 Q1007 NOSIG
Pressure 29.74 in
Visibility 6.2 miles
Clouds Few 1400 ft
Mostly Cloudy 1600 ft
Heat Index 92 °F
Dew Point 73 °F
Humidity 67%
Rainfall 0.00 in
Snow Depth Not available.
6:01 AM 6:19 PM
Waning Gibbous, 57% visible
METAR VCBI 241110Z 25009KT 9999 FEW014 BKN016 28/23 Q1007 NOSIG

10-Day Weather Forecast

No radar image for this location.
×

Almanac

Astronomy

Aug. 24, 2016 Rise Set
Actual Time
Civil Twilight
Nautical Twilight
Astronomical Twilight
Moon
Length of Visible Light
Length of Day
Tomorrow will be .
, % of the Moon is Illuminated

Today's Extremes

Country Highs Country Lows

Community

WunderPhotos

Upload Photos

1,934,572 photos uploaded!

WunderBlog® & News

Nearby

Air Quality

  Air Quality AQ Index Pollutant
Not available.

Snow Depth

Station Depth Elevation

Earthquake Activity

City Distance Mag. Time & Date
Minimum magnitude displayed is 2.5.

Coastal Water Temperatures

Place Temperature

Stations

Nearby Weather Stations

Station Location Temp. Windchill Dew Point Humidity Wind Precip. Elev Updated Type